Time;durP1;ratioP1;P1;durP2;ratioP2;P2;SDS_P1;SDS_P2;PMS_P1;PMS_P2;Temp;Humidity;BMP_temperature;BMP_pressure;BME280_temperature;BME280_humidity;BME280_pressure;Samples;Min_cycle;Max_cycle;Signal;HPM_P1;HPM_P2
2023/07/20 00:01:45;;;;;;;;;;;22.80;40.00;;;21.95;38.98;100628.22;12253559;19;19915;-88
2023/07/20 00:05:46;;;;;;;;;;;22.80;40.00;;;22.16;39.00;100669.53;12253224;19;19935;-87
2023/07/20 00:09:47;;;;;;;;;;;22.70;39.90;;;22.12;39.54;100666.38;12254392;19;19947;-87
2023/07/20 00:13:52;;;;;;;;;;;22.70;40.00;;;22.08;39.39;100663.16;12249043;19;20526;-87
2023/07/20 00:17:54;;;;;;;;;;;22.70;40.10;;;21.99;39.62;100660.66;12253356;19;19915;-87
2023/07/20 00:21:56;;;;;;;;;;;22.70;40.20;;;21.99;39.33;100677.44;12253954;19;19914;-87
2023/07/20 00:25:57;;;;;;;;;;;22.60;40.10;;;22.03;39.67;100675.28;12250835;19;20302;-87
2023/07/20 00:29:59;;;;;;;;;;;22.60;40.20;;;21.76;39.46;100631.97;12250864;19;19926;-87
2023/07/20 00:34:01;;;;;;;;;;;22.50;40.20;;;21.95;39.36;100678.75;12248415;19;19918;-87
2023/07/20 00:38:02;;;;;;;;;;;22.50;40.30;;;21.94;39.58;100677.09;12245512;19;20329;-87
2023/07/20 00:42:04;;;;;;;;;;;22.60;40.30;;;21.80;39.86;100661.75;12252677;19;19927;-87
2023/07/20 00:46:05;;;;;;;;;;;22.50;40.40;;;21.74;39.48;100665.88;12246103;19;19911;-87
2023/07/20 00:50:07;;;;;;;;;;;22.50;40.30;;;21.75;39.86;100667.53;12253979;19;19914;-87
2023/07/20 00:54:09;;;;;;;;;;;22.40;40.40;;;21.74;40.05;100665.03;12255183;19;19919;-87
2023/07/20 00:58:11;;;;;;;;;;;22.40;40.50;;;21.58;39.68;100642.72;12258456;19;20351;-87
2023/07/20 01:02:12;;;;;;;;;;;22.40;40.50;;;21.76;40.04;100673.69;12262535;19;19922;-87
2023/07/20 01:06:34;;;;;;;;;;;22.40;40.50;;;21.75;39.75;100677.34;12258271;19;19922;-87
2023/07/20 01:10:43;;;;;;;;;;;22.30;40.60;;;21.67;40.12;100669.31;12259168;19;19953;-87
2023/07/20 01:14:45;;;;;;;;;;;22.30;40.60;;;21.64;40.04;100676.63;12257159;19;20314;-87
2023/07/20 01:18:46;;;;;;;;;;;22.30;40.60;;;21.50;40.32;100657.78;12254951;19;19930;-87
2023/07/20 01:23:06;;;;;;;;;;;22.20;40.60;;;21.54;40.10;100673.22;12256531;19;20353;-87
2023/07/20 01:27:43;;;;;;;;;;;22.20;40.70;;;21.50;40.24;100679.88;12254553;19;19914;-88
2023/07/20 01:31:46;;;;;;;;;;;22.10;40.70;;;21.40;40.17;100677.31;12252552;19;19951;-87
2023/07/20 01:35:55;;;;;;;;;;;22.10;40.80;;;21.35;40.07;100684.03;12258331;19;19922;-87
2023/07/20 01:39:57;;;;;;;;;;;22.00;40.80;;;21.24;40.57;100671.03;12256482;19;19953;-87
2023/07/20 01:44:02;;;;;;;;;;;22.00;40.90;;;21.23;40.47;100683.47;12259513;19;19914;-87
2023/07/20 01:48:04;;;;;;;;;;;21.90;40.90;;;21.14;40.63;100664.00;12254453;19;19919;-87
2023/07/20 01:52:05;;;;;;;;;;;21.90;40.90;;;21.24;40.74;100685.13;12256270;19;19919;-88
2023/07/20 01:56:07;;;;;;;;;;;21.90;41.00;;;21.13;40.77;100677.41;12256715;19;20272;-88
2023/07/20 02:00:12;;;;;;;;;;;21.80;41.00;;;21.12;40.55;100667.78;12260160;19;19927;-88
2023/07/20 02:04:16;;;;;;;;;;;21.80;41.00;;;21.06;40.79;100663.06;12259180;19;19955;-88
2023/07/20 02:08:18;;;;;;;;;;;21.80;41.10;;;21.10;40.67;100683.03;12253666;19;19919;-88
2023/07/20 02:12:19;;;;;;;;;;;21.70;41.10;;;20.86;40.77;100652.66;12257264;19;19919;-87
2023/07/20 02:16:22;;;;;;;;;;;21.70;41.10;;;21.00;40.95;100672.50;12255829;19;19911;-88
2023/07/20 02:20:23;;;;;;;;;;;21.70;41.20;;;20.96;41.01;100668.50;12255992;19;19940;-88
2023/07/20 02:24:25;;;;;;;;;;;21.70;41.20;;;20.94;40.87;100663.31;12258422;19;19923;-88
2023/07/20 02:28:28;;;;;;;;;;;21.70;41.30;;;20.97;41.09;100672.81;12253901;19;19927;-88
2023/07/20 02:32:31;;;;;;;;;;;21.70;41.30;;;20.97;41.40;100673.63;12259607;19;19947;-88
2023/07/20 02:36:34;;;;;;;;;;;21.70;41.40;;;20.92;41.39;100665.28;12251311;19;19915;-88
2023/07/20 02:40:35;;;;;;;;;;;21.60;41.40;;;20.74;41.06;100652.06;12255800;19;19915;-88
2023/07/20 02:44:37;;;;;;;;;;;21.60;41.50;;;20.76;41.04;100654.53;12253032;19;20598;-88
2023/07/20 02:48:39;;;;;;;;;;;21.50;41.40;;;20.81;41.15;100667.38;12251782;19;20615;-88
2023/07/20 02:52:40;;;;;;;;;;;21.50;41.40;;;20.77;41.36;100674.81;12253398;19;19919;-88
2023/07/20 02:56:42;;;;;;;;;;;21.50;41.40;;;20.80;41.47;100686.94;12255068;19;20272;-88
2023/07/20 03:00:44;;;;;;;;;;;21.50;41.40;;;20.64;41.30;100664.56;12259801;19;19931;-88
2023/07/20 03:04:45;;;;;;;;;;;21.40;41.50;;;20.49;41.48;100647.47;12254904;19;19927;-88
2023/07/20 03:08:48;;;;;;;;;;;21.40;41.50;;;20.41;41.41;100655.34;12253314;19;20333;-88
2023/07/20 03:12:49;;;;;;;;;;;21.30;41.50;;;20.63;41.30;100694.75;12255292;19;19915;-88
2023/07/20 03:16:51;;;;;;;;;;;21.30;41.60;;;20.56;41.44;100691.03;12247594;19;19929;-88
2023/07/20 03:20:53;;;;;;;;;;;21.30;41.80;;;20.59;41.51;100711.94;12252112;19;19932;-88
2023/07/20 03:24:54;;;;;;;;;;;21.30;41.80;;;20.57;41.88;100710.41;12252970;19;19929;-88
2023/07/20 03:28:56;;;;;;;;;;;21.30;41.90;;;20.48;41.71;100690.91;12249746;19;19922;-88
2023/07/20 03:32:57;;;;;;;;;;;21.30;41.90;;;20.48;42.02;100697.03;12248212;19;19974;-87
2023/07/20 03:36:59;;;;;;;;;;;21.20;41.80;;;20.47;41.74;100702.50;12246124;19;19929;-87
2023/07/20 03:41:02;;;;;;;;;;;21.20;42.10;;;20.45;41.96;100701.81;12250283;19;19918;-87
2023/07/20 03:45:06;;;;;;;;;;;21.20;42.10;;;20.41;42.09;100700.44;12245478;19;19903;-87
2023/07/20 03:49:08;;;;;;;;;;;21.20;41.90;;;20.32;42.20;100695.03;12245190;19;19945;-87
2023/07/20 03:53:10;;;;;;;;;;;21.20;42.10;;;20.35;41.84;100709.81;12249150;19;19947;-88
2023/07/20 03:57:12;;;;;;;;;;;21.10;42.10;;;20.16;41.86;100675.47;12242617;19;19915;-87
2023/07/20 04:01:13;;;;;;;;;;;21.10;42.10;;;20.33;42.04;100709.13;12245288;19;19925;-87
2023/07/20 04:05:16;;;;;;;;;;;21.10;42.30;;;20.38;42.00;100721.97;12240928;19;19929;-87
2023/07/20 04:09:18;;;;;;;;;;;21.10;42.30;;;20.37;42.30;100728.25;12240433;19;20238;-87
2023/07/20 04:13:19;;;;;;;;;;;21.10;42.30;;;20.25;42.31;100699.28;12243502;19;19907;-87
2023/07/20 04:17:41;;;;;;;;;;;21.10;42.40;;;20.42;42.24;100721.53;12236826;19;19903;-87
2023/07/20 04:21:42;;;;;;;;;;;21.10;42.50;;;20.38;42.46;100720.13;12242331;19;19927;-87
2023/07/20 04:25:43;;;;;;;;;;;21.10;42.40;;;20.42;42.15;100723.34;12235515;19;19915;-87
2023/07/20 04:29:47;;;;;;;;;;;21.10;42.40;;;20.22;42.50;100686.31;12240772;19;19911;-87
2023/07/20 04:33:49;;;;;;;;;;;21.20;42.50;;;20.43;42.28;100717.03;12251305;19;19946;-88
2023/07/20 04:37:52;;;;;;;;;;;21.20;42.60;;;20.36;42.47;100708.00;12244895;19;19935;-87
2023/07/20 04:41:57;;;;;;;;;;;21.20;42.60;;;20.27;42.51;100702.59;12251168;19;19919;-88
2023/07/20 04:45:59;;;;;;;;;;;21.20;42.50;;;20.33;42.69;100714.44;12247703;19;19931;-88
2023/07/20 04:50:01;;;;;;;;;;;21.20;42.60;;;20.37;42.58;100712.34;12257103;19;19919;-87
2023/07/20 04:54:03;;;;;;;;;;;21.20;42.50;;;20.41;42.60;100732.28;12252729;19;20256;-87
2023/07/20 04:58:09;;;;;;;;;;;21.20;42.70;;;20.27;42.59;100723.81;12252661;19;19915;-87
2023/07/20 05:02:12;;;;;;;;;;;21.20;42.60;;;20.27;42.81;100729.13;12256388;19;19919;-87
2023/07/20 05:06:14;;;;;;;;;;;21.10;42.60;;;20.25;42.81;100730.25;12252854;19;19933;-87
2023/07/20 05:10:16;;;;;;;;;;;21.10;42.70;;;20.28;42.92;100748.53;12257141;19;19915;-87
2023/07/20 05:14:17;;;;;;;;;;;21.10;43.20;;;20.11;42.96;100720.97;12253722;19;19918;-87
2023/07/20 05:18:21;;;;;;;;;;;21.10;43.30;;;20.24;42.91;100740.03;12247372;19;20333;-87
2023/07/20 05:22:24;;;;;;;;;;;21.00;42.90;;;20.21;42.81;100729.72;12260338;19;19919;-87
2023/07/20 05:26:26;;;;;;;;;;;21.00;42.90;;;20.19;42.89;100728.19;12256116;19;19919;-87
2023/07/20 05:30:29;;;;;;;;;;;21.10;43.00;;;20.32;42.80;100737.47;12258284;19;19911;-87
2023/07/20 05:34:31;;;;;;;;;;;21.10;43.20;;;20.19;43.22;100715.78;12258041;19;20286;-87
2023/07/20 05:38:32;;;;;;;;;;;21.10;43.10;;;20.39;43.08;100743.03;12257828;19;19922;-87
2023/07/20 05:42:34;;;;;;;;;;;21.20;43.50;;;20.35;43.13;100736.34;12257575;19;19915;-87
2023/07/20 05:46:36;;;;;;;;;;;21.20;43.20;;;20.40;43.30;100744.69;12249678;19;19915;-87
2023/07/20 05:50:41;;;;;;;;;;;21.20;43.20;;;20.45;43.18;100746.91;12254820;19;19931;-87
2023/07/20 05:54:43;;;;;;;;;;;21.20;43.10;;;20.47;43.25;100750.25;12255109;19;20279;-87
2023/07/20 05:58:45;;;;;;;;;;;21.20;43.10;;;20.39;43.14;100736.88;12253246;19;19930;-87
2023/07/20 06:02:47;;;;;;;;;;;21.20;43.10;;;20.41;43.39;100742.88;12254551;19;20273;-86
2023/07/20 06:06:49;;;;;;;;;;;21.30;43.30;;;20.51;43.47;100757.75;12256097;19;19923;-86
2023/07/20 06:10:53;;;;;;;;;;;21.30;43.20;;;20.41;43.42;100746.34;12253994;19;19923;-86
2023/07/20 06:14:55;;;;;;;;;;;21.30;43.30;;;20.54;43.28;100761.97;12250423;19;19921;-86
2023/07/20 06:18:57;;;;;;;;;;;21.30;43.40;;;20.43;43.49;100752.34;12253703;19;20361;-86
2023/07/20 06:22:58;;;;;;;;;;;21.40;43.50;;;20.52;43.55;100769.19;12256164;19;19910;-86
2023/07/20 06:27:00;;;;;;;;;;;21.40;43.40;;;20.48;43.87;100760.72;12252315;19;19952;-86
2023/07/20 06:31:02;;;;;;;;;;;21.40;43.40;;;20.59;43.69;100780.09;12255118;19;19915;-87
2023/07/20 06:35:05;;;;;;;;;;;21.40;43.20;;;20.53;43.84;100781.50;12251472;19;20351;-86
2023/07/20 06:39:06;;;;;;;;;;;21.40;43.30;;;20.47;43.74;100763.53;12253659;19;19926;-86
2023/07/20 06:43:08;;;;;;;;;;;21.40;43.40;;;20.64;43.86;100789.28;12249083;19;20312;-86
2023/07/20 06:47:09;;;;;;;;;;;21.40;43.50;;;20.65;43.75;100788.28;12251598;19;19923;-86
2023/07/20 06:51:11;;;;;;;;;;;21.50;43.40;;;20.70;43.85;100785.19;12253346;19;19984;-86
2023/07/20 06:55:13;;;;;;;;;;;21.50;43.40;;;20.66;43.75;100779.38;12254098;19;19924;-86
2023/07/20 06:59:14;;;;;;;;;;;21.60;43.40;;;20.69;43.59;100783.53;12254139;19;19975;-86
2023/07/20 07:03:16;;;;;;;;;;;21.60;43.70;;;20.57;43.66;100766.97;12250060;19;20387;-87
2023/07/20 07:07:17;;;;;;;;;;;21.60;43.40;;;20.55;43.91;100768.97;12250039;19;19918;-87
2023/07/20 07:11:21;;;;;;;;;;;21.60;43.30;;;20.74;43.73;100805.16;12250636;19;19922;-87
2023/07/20 07:15:22;;;;;;;;;;;21.60;43.20;;;20.75;44.03;100802.34;12248859;19;19915;-86
2023/07/20 07:19:24;;;;;;;;;;;21.60;43.30;;;20.63;43.88;100777.00;12251670;19;19962;-86
2023/07/20 07:23:26;;;;;;;;;;;21.60;43.40;;;20.60;44.13;100766.66;12247056;19;19946;-86
2023/07/20 07:27:28;;;;;;;;;;;21.60;43.50;;;20.76;43.94;100788.06;12249398;19;19922;-86
2023/07/20 07:31:30;;;;;;;;;;;21.70;43.80;;;20.90;44.03;100804.47;12250329;19;19929;-85
2023/07/20 07:35:32;;;;;;;;;;;21.70;43.80;;;20.98;44.10;100807.22;12252640;19;19951;-85
2023/07/20 07:39:34;;;;;;;;;;;21.80;43.70;;;21.06;43.96;100825.06;12254085;19;19932;-84
2023/07/20 07:43:36;;;;;;;;;;;21.90;43.60;;;21.06;43.92;100812.63;12253653;19;19922;-84
2023/07/20 07:47:38;;;;;;;;;;;22.00;43.70;;;21.15;44.20;100813.56;12250290;19;19996;-84
2023/07/20 07:51:40;;;;;;;;;;;22.00;43.70;;;21.27;44.07;100819.47;12249866;19;20256;-84
2023/07/20 07:55:42;;;;;;;;;;;22.10;43.70;;;21.40;44.47;100807.50;12251576;19;19926;-85
2023/07/20 07:59:43;;;;;;;;;;;22.20;43.80;;;21.58;44.25;100806.66;12245932;19;20380;-83
2023/07/20 08:03:47;;;;;;;;;;;22.50;43.80;;;21.68;44.10;100795.91;12251260;19;19911;-83
2023/07/20 08:07:48;;;;;;;;;;;22.60;43.80;;;21.85;44.39;100798.53;12245970;19;20265;-83
2023/07/20 08:11:50;;;;;;;;;;;22.80;43.40;;;21.84;44.26;100788.88;12252065;19;19919;-83
2023/07/20 08:15:53;;;;;;;;;;;22.90;43.20;;;22.00;44.30;100801.44;12249298;19;19925;-83
2023/07/20 08:19:54;;;;;;;;;;;23.00;43.20;;;22.03;44.06;100784.34;12253535;19;19915;-83
2023/07/20 08:23:56;;;;;;;;;;;23.10;43.20;;;22.28;44.14;100823.41;12254481;19;20061;-83
2023/07/20 08:28:00;;;;;;;;;;;23.20;43.00;;;22.34;44.28;100811.31;12251491;19;19929;-84
2023/07/20 08:32:03;;;;;;;;;;;23.30;43.00;;;22.51;44.36;100817.53;12252547;19;19947;-83
2023/07/20 08:36:05;;;;;;;;;;;23.50;43.00;;;22.71;44.19;100818.06;12250756;19;19922;-83
2023/07/20 08:40:08;;;;;;;;;;;23.60;43.10;;;22.88;44.14;100813.66;12254858;19;19919;-82
2023/07/20 08:44:10;;;;;;;;;;;23.80;43.10;;;22.96;44.43;100821.69;12253788;19;19927;-84
2023/07/20 08:48:13;;;;;;;;;;;24.00;42.80;;;22.93;44.08;100814.84;12252337;19;19911;-82
2023/07/20 08:52:15;;;;;;;;;;;24.00;42.40;;;22.95;44.15;100819.97;12250727;19;19922;-83
2023/07/20 08:56:17;;;;;;;;;;;24.10;42.40;;;22.96;44.06;100833.19;12251561;19;19919;-83
2023/07/20 09:00:20;;;;;;;;;;;24.00;42.20;;;23.01;44.20;100831.84;12252160;19;20341;-83
2023/07/20 09:04:22;;;;;;;;;;;24.10;42.00;;;23.00;44.33;100827.53;12255716;19;19923;-85
2023/07/20 09:08:23;;;;;;;;;;;24.00;42.00;;;22.95;44.30;100817.31;12254581;19;20249;-85
2023/07/20 09:12:25;;;;;;;;;;;24.10;42.10;;;23.12;44.19;100820.91;12254612;19;19915;-84
2023/07/20 09:16:28;;;;;;;;;;;24.20;42.00;;;23.16;44.19;100820.38;12253465;19;20018;-84
2023/07/20 09:20:36;;;;;;;;;;;24.20;42.20;;;23.30;43.87;100821.56;12263576;19;19919;-84
2023/07/20 09:24:37;;;;;;;;;;;24.30;42.10;;;23.39;43.91;100833.91;12261378;19;19948;-84
2023/07/20 09:28:44;;;;;;;;;;;24.40;42.00;;;23.38;44.10;100820.75;12260372;19;19919;-84
2023/07/20 09:32:47;;;;;;;;;;;24.40;41.70;;;23.32;43.65;100818.75;12262986;19;19910;-85
2023/07/20 09:36:49;;;;;;;;;;;24.40;41.50;;;23.24;43.87;100808.91;12262328;19;19925;-84
2023/07/20 09:40:51;;;;;;;;;;;24.40;41.60;;;23.37;43.99;100824.41;12264082;19;19922;-85
2023/07/20 09:44:53;;;;;;;;;;;24.40;41.80;;;23.47;43.77;100829.59;12263729;19;19918;-84
2023/07/20 09:48:54;;;;;;;;;;;24.40;41.80;;;23.52;44.02;100822.75;12261120;19;19919;-85
2023/07/20 09:52:56;;;;;;;;;;;24.50;41.90;;;23.64;43.67;100808.06;12261030;19;19938;-85
2023/07/20 09:56:58;;;;;;;;;;;24.60;41.70;;;23.72;43.98;100812.59;12258576;19;19936;-85
2023/07/20 10:01:03;;;;;;;;;;;24.70;41.60;;;23.76;43.47;100813.94;12261211;19;19931;-85
2023/07/20 10:05:05;;;;;;;;;;;24.80;41.50;;;23.81;43.33;100827.59;12262156;19;19919;-85
2023/07/20 10:09:07;;;;;;;;;;;24.80;41.30;;;23.80;43.47;100822.44;12259237;19;20411;-85
2023/07/20 10:13:17;;;;;;;;;;;24.90;41.20;;;23.80;43.82;100809.94;12262147;19;19915;-85
2023/07/20 10:17:20;;;;;;;;;;;24.90;41.20;;;23.87;43.72;100819.91;12258072;19;19915;-84
2023/07/20 10:21:25;;;;;;;;;;;24.90;41.10;;;23.73;43.72;100798.25;12262033;19;19922;-85
2023/07/20 10:25:28;;;;;;;;;;;24.80;41.00;;;23.90;43.24;100814.22;12259193;19;20354;-85
2023/07/20 10:29:30;;;;;;;;;;;24.90;41.10;;;23.89;43.74;100823.25;12256880;19;19917;-84
2023/07/20 10:33:31;;;;;;;;;;;24.90;41.10;;;23.89;43.59;100818.75;12261468;19;19954;-84
2023/07/20 10:38:02;;;;;;;;;;;24.90;41.10;;;23.78;43.17;100803.91;12258193;19;20002;-84
2023/07/20 10:42:08;;;;;;;;;;;24.90;41.00;;;23.88;43.04;100829.59;12260803;19;19918;-85
2023/07/20 10:46:12;;;;;;;;;;;24.80;40.80;;;23.58;43.32;100799.94;12262739;19;20243;-84
2023/07/20 10:50:13;;;;;;;;;;;24.80;40.80;;;23.51;43.25;100791.75;12260836;19;20368;-85
2023/07/20 10:54:18;;;;;;;;;;;24.70;40.80;;;23.75;42.95;100833.59;12262647;19;19911;-85
2023/07/20 10:58:26;;;;;;;;;;;24.70;40.90;;;23.71;43.16;100821.63;12258452;19;19930;-85
2023/07/20 11:02:27;;;;;;;;;;;24.70;41.00;;;23.71;43.43;100820.72;12261940;19;20441;-85
2023/07/20 11:06:31;;;;;;;;;;;24.70;41.10;;;23.96;43.01;100834.91;12259488;19;19911;-85
2023/07/20 11:10:32;;;;;;;;;;;24.80;41.20;;;23.80;42.96;100791.25;12262266;19;19910;-86
2023/07/20 11:14:39;;;;;;;;;;;24.90;41.20;;;24.08;42.93;100815.69;12262080;19;19951;-84
2023/07/20 11:18:41;;;;;;;;;;;25.00;40.90;;;24.11;42.80;100835.03;12261321;19;19911;-85
2023/07/20 11:22:43;;;;;;;;;;;25.10;40.90;;;24.13;42.96;100830.38;12258982;19;19919;-85
2023/07/20 11:26:48;;;;;;;;;;;25.10;40.70;;;24.08;42.95;100839.69;12260047;19;19919;-85
2023/07/20 11:30:53;;;;;;;;;;;25.00;40.80;;;24.06;42.94;100838.22;12261560;19;19923;-85
2023/07/20 11:34:55;;;;;;;;;;;25.00;40.80;;;24.04;43.21;100824.22;12257197;19;19915;-87
2023/07/20 11:38:58;;;;;;;;;;;25.00;40.90;;;24.18;42.64;100838.69;12259863;19;19956;-87
2023/07/20 11:43:00;;;;;;;;;;;25.10;41.10;;;24.27;42.69;100843.00;12274141;19;19927;-86
2023/07/20 11:47:04;;;;;;;;;;;25.10;41.00;;;24.36;43.06;100852.66;12271464;19;19951;-86
2023/07/20 11:51:06;;;;;;;;;;;25.20;40.90;;;24.35;42.84;100839.47;12269518;19;19915;-86
2023/07/20 11:55:08;;;;;;;;;;;25.20;40.80;;;24.33;42.85;100838.81;12240096;19;19918;-86
2023/07/20 11:59:09;;;;;;;;;;;25.30;40.80;;;24.39;42.84;100857.66;12241326;19;19940;-86
2023/07/20 12:03:12;;;;;;;;;;;25.20;40.60;;;24.38;43.01;100855.97;12250883;19;20006;-86
2023/07/20 12:07:14;;;;;;;;;;;25.20;40.70;;;24.20;42.83;100818.84;12249196;19;20337;-86
2023/07/20 12:11:30;;;;;;;;;;;25.30;40.80;;;24.39;42.65;100848.81;12264417;19;19915;-86
2023/07/20 12:15:32;;;;;;;;;;;25.30;40.80;;;24.34;42.95;100843.16;12252835;19;19919;-85
2023/07/20 12:19:38;;;;;;;;;;;25.30;40.90;;;24.42;42.69;100845.81;12251163;19;19966;-86
2023/07/20 12:23:42;;;;;;;;;;;25.30;40.80;;;24.48;42.38;100853.97;12249567;19;19942;-85
2023/07/20 12:27:44;;;;;;;;;;;25.30;40.80;;;24.45;42.64;100845.50;12246928;19;19978;-85
2023/07/20 12:31:46;;;;;;;;;;;25.30;40.80;;;24.31;42.72;100822.16;12247638;19;19915;-85
2023/07/20 12:35:49;;;;;;;;;;;25.40;41.00;;;24.49;42.61;100836.97;12245544;19;19923;-86
2023/07/20 12:39:51;;;;;;;;;;;25.40;41.00;;;24.53;42.46;100833.94;12246084;19;19922;-85
2023/07/20 12:43:53;;;;;;;;;;;25.40;40.90;;;24.55;42.83;100843.44;12248821;19;19915;-86
2023/07/20 12:47:55;;;;;;;;;;;25.50;40.70;;;24.65;42.89;100851.25;12244323;19;19919;-86
2023/07/20 12:51:56;;;;;;;;;;;25.50;40.60;;;24.61;42.60;100845.41;12256469;19;20333;-85
2023/07/20 12:55:59;;;;;;;;;;;25.50;40.60;;;24.54;42.34;100816.91;12256143;19;19935;-86
2023/07/20 13:00:03;;;;;;;;;;;25.60;40.60;;;24.68;42.66;100837.53;12261951;19;19926;-85
2023/07/20 13:04:05;;;;;;;;;;;25.60;40.60;;;24.54;42.16;100823.06;12263086;19;20329;-85
2023/07/20 13:08:07;;;;;;;;;;;25.60;40.50;;;24.69;42.57;100853.41;12258818;19;19919;-85
2023/07/20 13:12:08;;;;;;;;;;;25.60;40.60;;;24.66;42.40;100850.25;12261903;19;19926;-85
2023/07/20 13:16:10;;;;;;;;;;;25.50;40.60;;;24.52;42.32;100835.78;12259487;19;19939;-84
2023/07/20 13:20:12;;;;;;;;;;;25.50;40.50;;;24.64;42.30;100855.75;12256720;19;19922;-87
2023/07/20 13:24:13;;;;;;;;;;;25.50;40.40;;;24.57;42.24;100840.59;12259873;19;20251;-86
2023/07/20 13:28:15;;;;;;;;;;;25.50;40.40;;;24.63;42.23;100840.75;12251858;19;19982;-86
2023/07/20 13:32:17;;;;;;;;;;;25.50;40.30;;;24.67;42.34;100842.03;12252683;19;19923;-86
2023/07/20 13:36:20;;;;;;;;;;;25.50;40.40;;;24.76;42.50;100831.31;12256839;19;19921;-86
2023/07/20 13:40:23;;;;;;;;;;;25.50;40.10;;;24.76;42.01;100810.78;12256262;19;19919;-87
2023/07/20 13:44:25;;;;;;;;;;;25.60;40.00;;;24.93;42.27;100843.59;12248372;19;19923;-87
2023/07/20 13:48:27;;;;;;;;;;;25.70;40.10;;;24.72;41.97;100780.94;12251115;19;19918;-87
2023/07/20 13:52:28;;;;;;;;;;;25.80;39.80;;;25.01;42.16;100808.81;12254596;19;19914;-87
2023/07/20 13:56:31;;;;;;;;;;;25.90;39.50;;;25.15;42.07;100816.09;12250035;19;19922;-87
2023/07/20 14:00:33;;;;;;;;;;;26.00;40.00;;;25.27;42.16;100819.16;12256527;19;19915;-87
2023/07/20 14:04:34;;;;;;;;;;;26.10;40.00;;;25.35;42.28;100807.59;12250921;19;19915;-87
2023/07/20 14:08:36;;;;;;;;;;;26.20;38.90;;;25.31;42.17;100774.22;12253745;19;20261;-87
2023/07/20 14:12:37;;;;;;;;;;;26.30;39.50;;;25.57;41.75;100798.72;12252308;19;20361;-87
2023/07/20 14:16:39;;;;;;;;;;;26.40;39.20;;;25.56;41.85;100777.50;12239023;19;19915;-87
2023/07/20 14:20:41;;;;;;;;;;;26.50;39.00;;;25.55;41.45;100762.47;12245808;19;19921;-87
2023/07/20 14:24:42;;;;;;;;;;;26.70;38.70;;;25.80;41.84;100792.47;12252234;19;19982;-87
2023/07/20 14:28:43;;;;;;;;;;;26.70;38.60;;;25.95;41.28;100798.72;12248609;19;19948;-87
2023/07/20 14:32:45;;;;;;;;;;;26.80;38.00;;;25.81;41.37;100770.03;12253210;19;19923;-88
2023/07/20 14:36:47;;;;;;;;;;;26.90;38.40;;;25.96;41.35;100781.63;12240846;19;19927;-88
2023/07/20 14:40:49;;;;;;;;;;;27.00;38.60;;;26.13;41.44;100801.00;12246781;19;19987;-88
2023/07/20 14:44:50;;;;;;;;;;;27.00;37.70;;;26.13;41.31;100794.81;12247448;19;19925;-88
2023/07/20 14:48:52;;;;;;;;;;;27.10;38.40;;;26.21;41.51;100800.09;12241753;19;19926;-88
2023/07/20 14:52:54;;;;;;;;;;;27.10;38.50;;;26.18;41.25;100779.03;12243877;19;20306;-88
2023/07/20 14:56:56;;;;;;;;;;;27.10;37.90;;;26.22;41.01;100774.97;12238344;19;19986;-88
2023/07/20 15:00:57;;;;;;;;;;;27.20;38.20;;;26.33;41.17;100777.19;12241542;19;19923;-88
2023/07/20 15:04:58;;;;;;;;;;;27.30;38.50;;;26.40;40.94;100772.72;12241400;19;19951;-87
2023/07/20 15:09:00;;;;;;;;;;;27.30;38.30;;;26.48;40.91;100786.00;12244667;19;20376;-87
2023/07/20 15:13:02;;;;;;;;;;;27.40;38.30;;;26.54;40.90;100783.63;12244673;19;20380;-87
2023/07/20 15:17:03;;;;;;;;;;;27.40;38.00;;;26.49;41.01;100771.63;12245646;19;20336;-87
2023/07/20 15:21:05;;;;;;;;;;;27.50;38.40;;;26.60;40.78;100777.53;12247924;19;19919;-87
2023/07/20 15:25:08;;;;;;;;;;;27.50;38.20;;;26.66;40.58;100787.50;12241150;19;19914;-88
2023/07/20 15:29:10;;;;;;;;;;;27.50;37.00;;;26.66;40.84;100774.09;12245730;19;19926;-87
2023/07/20 15:33:11;;;;;;;;;;;27.50;37.40;;;26.65;40.65;100780.47;12231190;19;20680;-87
2023/07/20 15:37:13;;;;;;;;;;;27.50;37.90;;;26.53;40.44;100757.88;12241115;19;19918;-88
2023/07/20 15:41:14;;;;;;;;;;;27.60;38.10;;;26.64;40.65;100774.28;12243058;19;19915;-87
2023/07/20 15:45:16;;;;;;;;;;;27.60;38.10;;;26.60;40.11;100766.81;12243535;19;19948;-87
2023/07/20 15:49:18;;;;;;;;;;;27.60;37.50;;;26.60;40.09;100778.38;12245136;19;19970;-88
2023/07/20 15:53:19;;;;;;;;;;;27.50;37.90;;;26.48;39.79;100775.28;12245946;19;20249;-87
2023/07/20 15:57:20;;;;;;;;;;;27.50;37.80;;;26.40;40.00;100769.22;12245972;19;19999;-88
2023/07/20 16:01:22;;;;;;;;;;;27.40;37.90;;;26.45;40.15;100781.03;12247301;19;19923;-88
2023/07/20 16:05:23;;;;;;;;;;;27.30;37.90;;;26.35;39.88;100783.16;12242162;19;19922;-88
2023/07/20 16:09:24;;;;;;;;;;;27.20;37.40;;;26.23;40.03;100771.28;12244853;19;19915;-88
2023/07/20 16:13:26;;;;;;;;;;;27.20;37.80;;;26.10;39.65;100755.06;12248692;19;19949;-88
2023/07/20 16:17:27;;;;;;;;;;;27.10;37.80;;;26.17;39.56;100788.94;12242882;19;20016;-88
2023/07/20 16:21:29;;;;;;;;;;;27.00;37.60;;;26.00;39.68;100774.88;12246610;19;20274;-88
2023/07/20 16:25:30;;;;;;;;;;;26.90;37.10;;;25.98;39.43;100776.09;12248756;19;20420;-88
2023/07/20 16:29:32;;;;;;;;;;;26.80;37.50;;;25.98;39.61;100787.63;12254336;19;19915;-88
2023/07/20 16:33:34;;;;;;;;;;;26.80;37.40;;;25.68;39.65;100751.13;12256935;19;19914;-88
2023/07/20 16:37:35;;;;;;;;;;;26.70;37.40;;;25.84;39.51;100785.75;12252594;19;19925;-88
2023/07/20 16:41:37;;;;;;;;;;;26.60;37.20;;;25.72;39.59;100779.19;12258168;19;19917;-87
2023/07/20 16:45:38;;;;;;;;;;;26.60;37.00;;;25.72;39.64;100795.22;12254600;19;19914;-88
2023/07/20 16:49:39;;;;;;;;;;;26.50;37.40;;;25.70;39.23;100798.06;12250467;19;20019;-88
2023/07/20 16:53:41;;;;;;;;;;;26.50;37.50;;;25.64;39.38;100793.47;12256656;19;19915;-88
2023/07/20 16:57:43;;;;;;;;;;;26.40;37.10;;;25.57;38.99;100788.03;12248480;19;19919;-88
2023/07/20 17:01:44;;;;;;;;;;;26.30;36.60;;;25.51;39.27;100788.72;12255140;19;19918;-88
2023/07/20 17:05:46;;;;;;;;;;;26.30;37.10;;;25.43;39.22;100779.94;12250556;19;19930;-88
2023/07/20 17:09:48;;;;;;;;;;;26.20;36.70;;;25.46;39.26;100791.09;12251389;19;20257;-88
2023/07/20 17:13:50;;;;;;;;;;;26.20;37.20;;;25.41;39.40;100782.81;12255613;19;20346;-88
2023/07/20 17:17:52;;;;;;;;;;;26.20;37.40;;;25.33;39.14;100777.50;12250813;19;19919;-87
2023/07/20 17:21:53;;;;;;;;;;;26.10;37.40;;;25.34;38.90;100789.88;12254713;19;19990;-88
2023/07/20 17:25:55;;;;;;;;;;;26.10;37.30;;;25.39;39.05;100807.06;12251963;19;20590;-86
2023/07/20 17:29:58;;;;;;;;;;;26.10;37.10;;;25.34;38.92;100812.09;12252223;19;20353;-87
2023/07/20 17:34:01;;;;;;;;;;;26.00;36.90;;;25.10;39.04;100781.00;12255926;19;19918;-88
2023/07/20 17:38:03;;;;;;;;;;;26.00;37.30;;;25.16;39.12;100800.88;12250556;19;19923;-87
2023/07/20 17:42:05;;;;;;;;;;;26.00;37.20;;;25.11;39.27;100798.72;12254195;19;20308;-87
2023/07/20 17:46:06;;;;;;;;;;;25.90;37.10;;;25.10;38.86;100802.41;12250690;19;19915;-86
2023/07/20 17:50:12;;;;;;;;;;;25.90;37.20;;;25.09;39.04;100805.25;12251955;19;19918;-87
2023/07/20 17:54:13;;;;;;;;;;;25.90;37.20;;;25.01;38.99;100794.63;12254438;19;19923;-88
2023/07/20 17:58:15;;;;;;;;;;;25.80;37.20;;;24.99;38.77;100800.13;12250112;19;19915;-88
2023/07/20 18:02:17;;;;;;;;;;;25.80;37.40;;;25.00;38.73;100809.81;12253726;19;19926;-88
2023/07/20 18:06:19;;;;;;;;;;;25.80;37.40;;;25.01;39.12;100811.50;12247985;19;20312;-88
2023/07/20 18:10:20;;;;;;;;;;;25.70;37.40;;;24.76;39.18;100784.06;12247973;19;19968;-88